Time;durP1;ratioP1;P1;durP2;ratioP2;P2;SDS_P1;SDS_P2;PMS_P1;PMS_P2;Temp;Humidity;BMP_temperature;BMP_pressure;BME280_temperature;BME280_humidity;BME280_pressure;Samples;Min_cycle;Max_cycle;Signal;HPM_P1;HPM_P2
2023/03/02 00:01:43;;;;;;;1.73;0.00;;;;;;;4.94;60.94;102419.53;4962426;28;20599;-74
2023/03/02 00:04:13;;;;;;;0.20;0.10;;;;;;;4.94;60.54;102411.75;4930636;28;20051;-75
2023/03/02 00:06:40;;;;;;;0.35;0.00;;;;;;;4.93;60.80;102417.78;4962163;28;20402;-75
2023/03/02 00:09:07;;;;;;;0.10;0.03;;;;;;;4.90;61.05;102420.28;4961451;28;20575;-74
2023/03/02 00:11:37;;;;;;;0.20;0.08;;;;;;;4.86;60.98;102416.69;4958897;28;20055;-74
2023/03/02 00:14:05;;;;;;;0.08;0.00;;;;;;;4.88;60.83;102420.22;4959936;28;20105;-75
2023/03/02 00:16:32;;;;;;;0.75;0.05;;;;;;;4.86;60.89;102415.81;4962622;28;20062;-74
2023/03/02 00:18:59;;;;;;;0.10;0.00;;;;;;;4.84;60.88;102417.47;4962233;28;20387;-75
2023/03/02 00:21:26;;;;;;;0.00;0.00;;;;;;;4.81;60.70;102423.47;4960082;28;20061;-74
2023/03/02 00:23:53;;;;;;;0.82;0.10;;;;;;;4.79;60.84;102424.25;4962168;28;20503;-74
2023/03/02 00:26:20;;;;;;;0.65;0.45;;;;;;;4.70;61.04;102412.75;4958728;28;20735;-75
2023/03/02 00:28:49;;;;;;;2.42;0.00;;;;;;;4.67;60.75;102416.97;4963788;28;20047;-74
2023/03/02 00:31:16;;;;;;;0.55;0.55;;;;;;;4.60;60.98;102413.28;4961143;28;20057;-74
2023/03/02 00:33:43;;;;;;;1.08;0.00;;;;;;;4.65;60.83;102422.09;4959454;28;20082;-74
2023/03/02 00:36:15;;;;;;;0.30;0.00;;;;;;;4.60;60.92;102426.22;4962779;28;20055;-74
2023/03/02 00:38:43;;;;;;;0.50;0.00;;;;;;;4.56;61.26;102419.19;4963533;28;20413;-75
2023/03/02 00:41:11;;;;;;;0.13;0.00;;;;;;;4.43;61.18;102404.09;4961722;28;20054;-74
2023/03/02 00:43:38;;;;;;;0.57;0.00;;;;;;;4.46;61.12;102411.94;4961051;28;20419;-75
2023/03/02 00:46:11;;;;;;;2.53;0.10;;;;;;;4.48;60.93;102418.94;4962010;28;20150;-74
2023/03/02 00:48:38;;;;;;;0.20;0.10;;;;;;;4.44;61.09;102416.19;4958397;28;20050;-74
2023/03/02 00:51:06;;;;;;;0.65;0.00;;;;;;;4.40;61.31;102409.16;4960156;28;20487;-75
2023/03/02 00:53:34;;;;;;;0.20;0.00;;;;;;;4.35;61.11;102409.00;4961298;28;20055;-75
2023/03/02 00:56:01;;;;;;;0.20;0.00;;;;;;;4.34;61.02;102414.16;4965265;28;20051;-74
2023/03/02 00:58:29;;;;;;;0.08;0.00;;;;;;;4.27;61.12;102401.00;4962968;28;20563;-75
2023/03/02 01:00:57;;;;;;;1.40;0.08;;;;;;;4.28;61.12;102410.53;4962247;28;20047;-75
2023/03/02 01:03:25;;;;;;;0.10;0.00;;;;;;;4.25;61.39;102404.38;4961451;28;20043;-74
2023/03/02 01:05:55;;;;;;;0.93;0.00;;;;;;;4.22;61.21;102407.72;4960978;28;20048;-74
2023/03/02 01:08:22;;;;;;;0.10;0.00;;;;;;;4.20;61.33;102401.63;4960560;28;20395;-75
2023/03/02 01:10:49;;;;;;;1.42;0.00;;;;;;;4.16;61.59;102398.91;4955735;28;20487;-74
2023/03/02 01:13:16;;;;;;;0.08;0.00;;;;;;;4.14;61.37;102410.88;4955002;28;20565;-74
2023/03/02 01:15:43;;;;;;;1.48;0.00;;;;;;;4.08;61.67;102396.03;4961239;28;20054;-74
2023/03/02 01:18:10;;;;;;;0.35;0.00;;;;;;;4.06;61.72;102390.78;4959218;28;20043;-75
2023/03/02 01:20:38;;;;;;;0.20;0.00;;;;;;;4.03;61.79;102395.88;4960951;28;20050;-75
2023/03/02 01:23:05;;;;;;;0.20;0.00;;;;;;;3.95;61.40;102378.34;4959163;28;20249;-75
2023/03/02 01:25:32;;;;;;;0.10;0.00;;;;;;;3.97;61.69;102389.63;4961714;28;20051;-75
2023/03/02 01:27:59;;;;;;;2.00;0.00;;;;;;;3.94;61.77;102392.09;4961415;28;20047;-75
2023/03/02 01:30:26;;;;;;;1.65;0.00;;;;;;;3.90;61.99;102385.03;4963037;28;20106;-75
2023/03/02 01:32:52;;;;;;;0.15;0.05;;;;;;;3.87;62.11;102387.53;4957394;28;20070;-75
2023/03/02 01:35:19;;;;;;;0.00;0.00;;;;;;;3.82;61.99;102380.50;4962400;28;20412;-75
2023/03/02 01:37:47;;;;;;;0.35;0.00;;;;;;;3.79;62.14;102384.69;4962154;28;20487;-75
2023/03/02 01:40:14;;;;;;;0.15;0.05;;;;;;;3.75;62.36;102375.94;4959033;28;20138;-75
2023/03/02 01:42:50;;;;;;;0.10;0.00;;;;;;;3.72;62.08;102377.53;4959218;28;20053;-75
2023/03/02 01:45:44;;;;;;;0.13;0.00;;;;;;;3.69;62.39;102385.19;4957901;28;20050;-75
2023/03/02 01:48:12;;;;;;;0.00;0.00;;;;;;;3.64;62.45;102379.84;4953376;28;20043;-74
2023/03/02 01:50:40;;;;;;;0.17;0.00;;;;;;;3.62;62.01;102385.81;4961441;28;20050;-75
2023/03/02 01:53:08;;;;;;;0.00;0.00;;;;;;;3.57;62.11;102377.88;4964468;28;20062;-75
2023/03/02 01:55:38;;;;;;;0.00;0.00;;;;;;;3.54;62.44;102376.06;4962802;28;20059;-74
2023/03/02 01:58:06;;;;;;;0.20;0.03;;;;;;;3.48;62.24;102381.00;4962778;28;20507;-74
2023/03/02 02:00:37;;;;;;;0.30;0.00;;;;;;;3.50;62.58;102383.63;4961574;28;21171;-74
2023/03/02 02:03:09;;;;;;;0.75;0.05;;;;;;;3.47;62.87;102383.53;4962734;28;20053;-75
2023/03/02 02:05:38;;;;;;;0.75;0.00;;;;;;;3.43;62.62;102379.09;4965189;28;20050;-75
2023/03/02 02:08:05;;;;;;;0.25;0.00;;;;;;;3.43;62.34;102373.91;4964636;28;20051;-75
2023/03/02 02:10:34;;;;;;;0.10;0.00;;;;;;;3.40;63.00;102377.25;4956649;28;20416;-74
2023/03/02 02:13:01;;;;;;;0.10;0.00;;;;;;;3.38;62.74;102378.91;4962529;28;20063;-74
2023/03/02 02:15:28;;;;;;;2.08;0.08;;;;;;;3.32;62.92;102365.75;4964672;28;20074;-76
2023/03/02 02:17:55;;;;;;;0.82;0.00;;;;;;;3.33;62.50;102378.75;4963808;28;20046;-74
2023/03/02 02:20:30;;;;;;;0.00;0.00;;;;;;;3.31;63.01;102367.47;4962339;28;20050;-75
2023/03/02 02:23:07;;;;;;;0.00;0.00;;;;;;;3.29;62.42;102369.13;4964236;28;20147;-75
2023/03/02 02:25:47;;;;;;;0.85;0.00;;;;;;;3.27;62.54;102369.88;4963934;28;20043;-74
2023/03/02 02:28:21;;;;;;;3.72;0.47;;;;;;;3.25;63.21;102374.13;4964959;28;20059;-74
2023/03/02 02:30:52;;;;;;;0.17;0.00;;;;;;;3.22;62.74;102377.47;4963126;28;20043;-75
2023/03/02 02:33:23;;;;;;;0.00;0.00;;;;;;;3.18;63.32;102370.41;4966722;28;20062;-74
2023/03/02 02:35:55;;;;;;;0.00;0.00;;;;;;;3.15;62.58;102367.72;4960310;28;20053;-75
2023/03/02 02:38:24;;;;;;;0.00;0.00;;;;;;;3.13;62.86;102380.59;4964212;28;20700;-75
2023/03/02 02:40:55;;;;;;;0.20;0.00;;;;;;;3.13;63.33;102384.84;4958997;28;20047;-74
2023/03/02 02:43:23;;;;;;;0.00;0.00;;;;;;;3.11;63.04;102381.34;4964107;28;20431;-74
2023/03/02 02:45:55;;;;;;;0.30;0.00;;;;;;;3.08;62.92;102376.06;4960254;28;20062;-76
2023/03/02 02:48:25;;;;;;;0.55;0.00;;;;;;;3.08;63.12;102368.31;4960468;28;20041;-74
2023/03/02 02:50:59;;;;;;;1.38;0.00;;;;;;;3.06;63.01;102375.13;4961044;28;20141;-75
2023/03/02 02:53:30;;;;;;;1.50;0.00;;;;;;;3.04;63.58;102377.63;4959456;28;20059;-74
2023/03/02 02:55:59;;;;;;;1.05;0.08;;;;;;;3.01;63.17;102376.66;4964395;28;20051;-75
2023/03/02 02:58:34;;;;;;;0.05;0.00;;;;;;;2.99;63.06;102383.44;4960991;28;20051;-74
2023/03/02 03:01:01;;;;;;;0.03;0.00;;;;;;;2.96;63.31;102373.00;4963992;28;20106;-75
2023/03/02 03:03:30;;;;;;;0.00;0.00;;;;;;;2.93;63.37;102385.00;4963571;28;20082;-75
2023/03/02 03:05:58;;;;;;;0.45;0.10;;;;;;;2.92;63.44;102383.22;4959624;28;20051;-76
2023/03/02 03:08:58;;;;;;;0.20;0.00;;;;;;;2.89;63.43;102383.09;4963271;28;20058;-75
2023/03/02 03:11:27;;;;;;;1.25;0.10;;;;;;;2.86;63.10;102377.81;4963792;28;20058;-74
2023/03/02 03:14:02;;;;;;;0.00;0.00;;;;;;;2.85;63.28;102380.34;4960025;28;20058;-75
2023/03/02 03:16:30;;;;;;;0.00;0.00;;;;;;;2.80;63.33;102380.16;4964763;28;20066;-74
2023/03/02 03:19:01;;;;;;;0.20;0.00;;;;;;;2.79;63.51;102381.00;4958437;28;20055;-75
2023/03/02 03:21:28;;;;;;;1.02;0.10;;;;;;;2.74;63.82;102367.03;4964581;28;20055;-75
2023/03/02 03:23:55;;;;;;;0.00;0.00;;;;;;;2.76;63.35;102369.66;4959972;28;20146;-75
2023/03/02 03:26:22;;;;;;;0.20;0.00;;;;;;;2.70;63.30;102360.88;4959445;28;20047;-76
2023/03/02 03:28:49;;;;;;;0.00;0.00;;;;;;;2.65;63.53;102349.50;4962695;28;20047;-75
2023/03/02 03:31:17;;;;;;;0.20;0.00;;;;;;;2.67;63.33;102354.69;4961123;28;20065;-75
2023/03/02 03:33:44;;;;;;;0.20;0.00;;;;;;;2.67;64.20;102354.69;4962804;28;20122;-73
2023/03/02 03:36:11;;;;;;;0.00;0.00;;;;;;;2.65;63.80;102340.88;4960187;28;20054;-73
2023/03/02 03:38:38;;;;;;;0.05;0.00;;;;;;;2.63;63.93;102348.53;4961104;28;20055;-73
2023/03/02 03:41:05;;;;;;;0.95;0.00;;;;;;;2.60;63.75;102337.22;4958783;28;20146;-73
2023/03/02 03:43:32;;;;;;;0.03;0.00;;;;;;;2.57;63.47;102340.56;4963268;28;20043;-73
2023/03/02 03:45:58;;;;;;;0.00;0.00;;;;;;;2.58;64.30;102339.72;4959651;28;20047;-73
2023/03/02 03:48:27;;;;;;;0.00;0.00;;;;;;;2.57;64.33;102331.94;4963554;28;20058;-73
2023/03/02 03:50:54;;;;;;;0.05;0.00;;;;;;;2.56;63.58;102327.59;4966807;28;20071;-73
2023/03/02 03:53:21;;;;;;;0.95;0.00;;;;;;;2.53;64.21;102323.19;4960124;28;20038;-73
2023/03/02 03:55:49;;;;;;;0.88;0.00;;;;;;;2.53;63.68;102323.19;4961210;28;20058;-73
2023/03/02 03:58:16;;;;;;;0.10;0.00;;;;;;;2.51;64.32;102305.91;4960368;28;20042;-73
2023/03/02 04:00:44;;;;;;;0.05;0.00;;;;;;;2.50;63.99;102314.47;4963640;28;20081;-73
2023/03/02 04:03:11;;;;;;;0.05;0.00;;;;;;;2.49;63.81;102308.44;4963292;28;20154;-73
2023/03/02 04:05:39;;;;;;;0.57;0.00;;;;;;;2.43;64.45;102306.47;4963750;28;20411;-73
2023/03/02 04:08:07;;;;;;;1.38;0.00;;;;;;;2.45;64.48;102302.28;4961394;28;20051;-74
2023/03/02 04:10:34;;;;;;;0.52;0.05;;;;;;;2.43;64.40;102301.31;4959344;28;20151;-73
2023/03/02 04:13:01;;;;;;;0.57;0.08;;;;;;;2.43;64.14;102303.03;4962668;28;20061;-73
2023/03/02 04:15:28;;;;;;;0.10;0.10;;;;;;;2.41;64.02;102305.53;4960004;28;20062;-74
2023/03/02 04:17:55;;;;;;;5.57;0.00;;;;;;;2.37;63.84;102295.94;4959452;28;20065;-73
2023/03/02 04:20:23;;;;;;;0.10;0.08;;;;;;;2.36;64.85;102301.91;4963492;28;20471;-73
2023/03/02 04:22:52;;;;;;;0.20;0.10;;;;;;;2.34;64.59;102290.66;4959695;28;20043;-73
2023/03/02 04:25:22;;;;;;;1.00;0.10;;;;;;;2.31;64.35;102281.94;4957628;28;20423;-73
2023/03/02 04:27:50;;;;;;;0.10;0.03;;;;;;;2.28;64.40;102269.78;4963572;28;20051;-73
2023/03/02 04:30:19;;;;;;;0.00;0.00;;;;;;;2.27;64.51;102280.03;4963823;28;20050;-73
2023/03/02 04:32:47;;;;;;;0.00;0.00;;;;;;;2.21;64.75;102270.34;4962603;28;20054;-73
2023/03/02 04:35:14;;;;;;;1.55;0.00;;;;;;;2.22;64.81;102273.00;4961559;28;20055;-73
2023/03/02 04:37:42;;;;;;;0.70;0.08;;;;;;;2.24;64.89;102278.22;4960183;28;20136;-73
2023/03/02 04:40:13;;;;;;;0.80;0.10;;;;;;;2.19;64.66;102267.72;4961372;28;20058;-74
2023/03/02 04:42:40;;;;;;;1.25;0.00;;;;;;;2.22;64.47;102279.84;4957429;28;20050;-73
2023/03/02 04:45:08;;;;;;;0.10;0.10;;;;;;;2.21;64.98;102285.81;4957844;28;20055;-73
2023/03/02 04:47:35;;;;;;;0.52;0.08;;;;;;;2.20;64.69;102284.06;4960324;28;20043;-73
2023/03/02 04:50:03;;;;;;;0.28;0.00;;;;;;;2.18;65.15;102276.25;4960031;28;20069;-73
2023/03/02 04:52:29;;;;;;;0.55;0.30;;;;;;;2.17;65.08;102277.09;4958559;28;20057;-73
2023/03/02 04:54:56;;;;;;;0.10;0.00;;;;;;;2.16;64.65;102266.69;4961068;28;20061;-73
2023/03/02 04:57:25;;;;;;;0.28;0.00;;;;;;;2.16;64.52;102277.00;4961946;28;20487;-73
2023/03/02 04:59:52;;;;;;;0.47;0.10;;;;;;;2.15;65.14;102273.56;4961663;28;20054;-73
2023/03/02 05:02:19;;;;;;;0.20;0.00;;;;;;;2.14;64.73;102271.81;4958893;28;20074;-73
2023/03/02 05:04:45;;;;;;;0.15;0.10;;;;;;;2.13;64.91;102258.84;4960940;28;20054;-72
2023/03/02 05:07:14;;;;;;;0.13;0.13;;;;;;;2.10;64.88;102254.44;4961326;28;20055;-73
2023/03/02 05:09:41;;;;;;;0.05;0.00;;;;;;;2.11;64.87;102257.94;4958953;28;20479;-73
2023/03/02 05:12:08;;;;;;;0.50;0.10;;;;;;;2.10;65.16;102258.72;4958572;28;20063;-73
2023/03/02 05:14:36;;;;;;;1.33;0.10;;;;;;;2.08;64.69;102257.78;4958840;28;20054;-73
2023/03/02 05:17:03;;;;;;;0.15;0.00;;;;;;;2.07;64.96;102256.03;4959516;28;20404;-73
2023/03/02 05:19:30;;;;;;;0.00;0.00;;;;;;;2.07;65.17;102253.47;4961081;28;20055;-73
2023/03/02 05:21:57;;;;;;;0.10;0.00;;;;;;;2.00;65.16;102239.47;4957100;28;20051;-73
2023/03/02 05:24:23;;;;;;;0.00;0.00;;;;;;;2.03;64.88;102249.88;4958818;28;20829;-73
2023/03/02 05:26:50;;;;;;;0.45;0.25;;;;;;;2.03;65.36;102250.75;4963345;28;20047;-73
2023/03/02 05:29:17;;;;;;;0.08;0.00;;;;;;;2.01;65.01;102247.22;4963726;28;20050;-74
2023/03/02 05:31:46;;;;;;;0.05;0.00;;;;;;;2.00;65.07;102248.06;4965304;28;20050;-73
2023/03/02 05:34:16;;;;;;;0.52;0.10;;;;;;;2.00;65.09;102248.06;4962904;28;20059;-73
2023/03/02 05:36:43;;;;;;;0.20;0.03;;;;;;;1.98;64.86;102246.25;4962653;28;20054;-73
2023/03/02 05:39:11;;;;;;;0.28;0.10;;;;;;;1.97;65.05;102247.06;4970574;28;20051;-73
2023/03/02 05:41:39;;;;;;;0.25;0.05;;;;;;;1.97;65.57;102245.38;4967092;28;20397;-73
2023/03/02 05:44:08;;;;;;;0.20;0.10;;;;;;;1.95;64.91;102247.00;4959381;28;20062;-73
2023/03/02 05:46:36;;;;;;;2.00;0.10;;;;;;;1.94;65.13;102245.25;4967056;28;20543;-73
2023/03/02 05:49:04;;;;;;;1.48;0.93;;;;;;;1.92;65.69;102241.72;4962906;28;20483;-73
2023/03/02 05:51:31;;;;;;;0.60;0.10;;;;;;;1.91;65.31;102247.69;4965009;28;20054;-73
2023/03/02 05:53:58;;;;;;;0.10;0.05;;;;;;;1.88;65.35;102245.00;4963558;28;20061;-73
2023/03/02 05:56:25;;;;;;;1.30;0.10;;;;;;;1.88;65.23;102247.56;4966632;28;20061;-73
2023/03/02 05:58:52;;;;;;;0.82;0.03;;;;;;;1.87;65.50;102250.94;4961683;28;20047;-73
2023/03/02 06:01:19;;;;;;;0.68;0.10;;;;;;;1.87;65.26;102247.50;4960287;28;20122;-74
2023/03/02 06:03:46;;;;;;;0.10;0.03;;;;;;;1.86;65.02;102250.91;4964429;28;20514;-73
2023/03/02 06:06:14;;;;;;;0.15;0.00;;;;;;;1.80;65.35;102244.69;4965141;28;20102;-72
2023/03/02 06:08:42;;;;;;;0.93;0.00;;;;;;;1.83;65.05;102246.50;4963068;28;20055;-72
2023/03/02 06:11:10;;;;;;;0.43;0.00;;;;;;;1.76;65.38;102232.47;4964550;28;20051;-73
2023/03/02 06:13:37;;;;;;;0.05;0.05;;;;;;;1.81;65.24;102248.13;4963090;28;20074;-73
2023/03/02 06:16:04;;;;;;;1.08;0.03;;;;;;;1.79;65.59;102244.59;4962516;28;20047;-72
2023/03/02 06:18:33;;;;;;;0.82;0.10;;;;;;;1.80;65.16;102248.97;4962500;28;20051;-71
2023/03/02 06:21:00;;;;;;;0.77;0.10;;;;;;;1.72;65.07;102233.19;4960724;28;20647;-73
2023/03/02 06:23:29;;;;;;;0.00;0.00;;;;;;;1.80;66.09;102241.22;4959021;28;20051;-73
2023/03/02 06:25:57;;;;;;;0.10;0.00;;;;;;;1.80;65.66;102236.06;4958142;28;20047;-73
2023/03/02 06:28:24;;;;;;;0.73;0.10;;;;;;;1.80;65.82;102242.09;4959051;28;20086;-73
2023/03/02 06:30:52;;;;;;;0.93;0.00;;;;;;;1.80;65.29;102236.06;4959303;28;20043;-73
2023/03/02 06:33:20;;;;;;;4.13;0.63;;;;;;;1.78;65.37;102232.53;4956787;28;20105;-74
2023/03/02 06:35:47;;;;;;;1.27;0.10;;;;;;;1.80;65.14;102233.50;4958076;28;20051;-73
2023/03/02 06:38:14;;;;;;;1.45;0.00;;;;;;;1.80;64.98;102238.66;4960165;28;20063;-74
2023/03/02 06:40:42;;;;;;;0.30;0.10;;;;;;;1.79;65.76;102221.41;4961241;28;20039;-73
2023/03/02 06:43:09;;;;;;;1.17;0.10;;;;;;;1.80;65.63;102225.78;4960930;28;20069;-72
2023/03/02 06:45:36;;;;;;;1.35;0.15;;;;;;;1.81;65.44;102227.53;4960324;28;20043;-73
2023/03/02 06:48:03;;;;;;;0.20;0.10;;;;;;;1.82;65.78;102230.97;4961253;28;20075;-73
2023/03/02 06:50:30;;;;;;;1.45;0.10;;;;;;;1.84;65.51;102227.63;4956285;28;20050;-72
2023/03/02 06:52:57;;;;;;;0.20;0.00;;;;;;;1.83;65.66;102225.88;4958297;28;20134;-73
2023/03/02 06:55:24;;;;;;;1.15;0.10;;;;;;;1.85;65.92;102224.25;4962743;28;20053;-73
2023/03/02 06:57:53;;;;;;;0.32;0.08;;;;;;;1.84;65.42;102225.06;4960097;28;20043;-73
2023/03/02 07:00:26;;;;;;;1.38;0.10;;;;;;;1.87;65.61;102221.72;4959474;28;20514;-72
2023/03/02 07:02:54;;;;;;;1.27;0.10;;;;;;;1.86;65.76;102215.72;4959166;28;20049;-72
2023/03/02 07:05:22;;;;;;;1.90;0.10;;;;;;;1.89;65.66;102214.94;4956279;28;20070;-73
2023/03/02 07:07:49;;;;;;;1.83;0.10;;;;;;;1.89;65.17;102210.69;4952964;28;20466;-74
2023/03/02 07:10:16;;;;;;;1.17;0.10;;;;;;;1.91;65.70;102208.16;4959938;28;20050;-73
2023/03/02 07:12:43;;;;;;;5.82;0.10;;;;;;;1.93;64.94;102221.97;4959644;28;20481;-73
2023/03/02 07:15:13;;;;;;;2.78;0.10;;;;;;;1.94;65.93;102216.91;4959835;28;20059;-73
2023/03/02 07:17:42;;;;;;;0.85;0.10;;;;;;;1.95;65.61;102202.31;4960120;28;20090;-73
2023/03/02 07:20:10;;;;;;;1.58;0.10;;;;;;;1.98;65.63;102205.88;4960414;28;20051;-73
2023/03/02 07:22:37;;;;;;;1.48;0.10;;;;;;;2.00;65.58;102211.97;4962192;28;20072;-73
2023/03/02 07:25:05;;;;;;;1.92;0.03;;;;;;;2.01;65.41;102205.13;4959626;28;20055;-74
2023/03/02 07:27:32;;;;;;;0.82;0.10;;;;;;;2.05;65.71;102208.69;4960911;28;20047;-74
2023/03/02 07:29:59;;;;;;;0.15;0.00;;;;;;;2.06;65.26;102197.59;4959822;28;20043;-73
2023/03/02 07:32:28;;;;;;;0.50;0.13;;;;;;;2.10;65.03;102202.91;4960822;28;20062;-73
2023/03/02 07:34:55;;;;;;;4.10;0.10;;;;;;;2.15;65.59;102208.25;4957632;28;20043;-73
2023/03/02 07:37:21;;;;;;;3.08;0.80;;;;;;;2.18;65.17;102193.75;4959681;28;20050;-73
2023/03/02 07:39:49;;;;;;;2.45;0.10;;;;;;;2.22;65.02;102197.34;4958661;28;20050;-73
2023/03/02 07:42:16;;;;;;;2.72;0.10;;;;;;;2.22;65.53;102185.34;4960482;28;20054;-74
2023/03/02 07:44:44;;;;;;;0.40;0.10;;;;;;;2.30;64.76;102182.16;4960211;28;20162;-73
2023/03/02 07:47:10;;;;;;;5.20;1.23;;;;;;;2.34;65.01;102171.16;4958538;28;20126;-73
2023/03/02 07:49:39;;;;;;;1.02;0.05;;;;;;;2.40;64.98;102177.41;4956135;28;20051;-74
2023/03/02 07:52:06;;;;;;;0.90;0.10;;;;;;;2.46;65.07;102172.47;4956225;28;20050;-74
2023/03/02 07:54:33;;;;;;;2.17;0.10;;;;;;;2.51;65.28;102158.91;4956675;28;20141;-73
2023/03/02 07:57:00;;;;;;;1.30;0.10;;;;;;;2.59;65.00;102165.19;4955588;28;20054;-74
2023/03/02 07:59:28;;;;;;;2.03;0.75;;;;;;;2.68;65.00;102160.38;4958582;28;20049;-72
2023/03/02 08:01:56;;;;;;;8.68;1.08;;;;;;;2.72;64.53;102159.66;4958653;28;20054;-72
2023/03/02 08:04:23;;;;;;;8.27;2.17;;;;;;;2.82;64.80;102159.19;4959710;28;20050;-72
2023/03/02 08:06:52;;;;;;;1.50;0.30;;;;;;;2.90;64.88;102144.84;4958444;28;20166;-73
2023/03/02 08:09:19;;;;;;;1.35;0.47;;;;;;;2.97;64.60;102139.88;4955607;28;20051;-74
2023/03/02 08:11:47;;;;;;;3.80;1.05;;;;;;;3.05;64.18;102141.03;4959027;28;20368;-74
2023/03/02 08:14:14;;;;;;;6.00;1.20;;;;;;;3.12;64.11;102142.97;4960679;28;20208;-75
2023/03/02 08:16:41;;;;;;;1.52;0.60;;;;;;;3.19;64.05;102134.63;4960692;28;20102;-74
2023/03/02 08:19:09;;;;;;;3.60;0.30;;;;;;;3.27;63.69;102130.59;4959756;28;20077;-74
2023/03/02 08:21:36;;;;;;;8.18;0.52;;;;;;;3.35;63.60;102123.09;4958683;28;20047;-74
2023/03/02 08:24:05;;;;;;;2.65;0.40;;;;;;;3.43;63.58;102124.22;4963823;28;20499;-73
2023/03/02 08:26:32;;;;;;;2.13;0.30;;;;;;;3.49;63.60;102118.38;4957467;28;20057;-75
2023/03/02 08:28:59;;;;;;;6.30;1.35;;;;;;;3.53;63.10;102120.22;4959882;28;20051;-74
2023/03/02 08:31:26;;;;;;;5.60;0.40;;;;;;;3.45;63.01;102091.56;4963763;28;20047;-74
2023/03/02 08:33:53;;;;;;;3.10;0.40;;;;;;;3.71;62.81;102119.94;4963213;28;20101;-74
2023/03/02 08:36:21;;;;;;;2.15;0.30;;;;;;;3.76;62.71;102127.00;4960924;28;20058;-74
2023/03/02 08:38:49;;;;;;;3.45;0.20;;;;;;;3.83;62.79;102117.72;4957241;28;20055;-74
2023/03/02 08:41:20;;;;;;;1.95;0.20;;;;;;;3.89;62.74;102124.78;4958452;28;20058;-73
2023/03/02 08:43:47;;;;;;;1.85;0.10;;;;;;;3.96;62.30;102116.41;4961801;28;20479;-74
2023/03/02 08:46:16;;;;;;;3.08;0.30;;;;;;;4.00;62.45;102113.06;4962849;28;20053;-73
2023/03/02 08:48:44;;;;;;;0.68;0.10;;;;;;;4.04;62.10;102109.72;4960531;28;20055;-73
2023/03/02 08:51:14;;;;;;;8.98;0.20;;;;;;;4.12;61.76;102109.97;4962491;28;20050;-74
2023/03/02 08:53:42;;;;;;;2.92;0.30;;;;;;;4.15;61.28;102092.81;4958873;28;20058;-74
2023/03/02 08:56:19;;;;;;;1.75;0.30;;;;;;;4.15;61.55;102077.31;4960927;28;20675;-76
2023/03/02 08:58:48;;;;;;;2.03;0.45;;;;;;;4.25;61.53;102089.66;4957445;28;20047;-74
2023/03/02 09:01:16;;;;;;;2.80;0.20;;;;;;;4.29;60.96;102073.41;4958055;28;20106;-73
2023/03/02 09:03:43;;;;;;;2.10;0.17;;;;;;;4.33;60.82;102076.09;4960917;28;20050;-75
2023/03/02 09:06:10;;;;;;;1.38;0.13;;;;;;;4.37;61.15;102072.75;4963465;28;20051;-75
2023/03/02 09:08:38;;;;;;;6.53;0.43;;;;;;;4.41;60.67;102069.41;4962871;28;20050;-76
2023/03/02 09:11:05;;;;;;;3.45;0.40;;;;;;;4.44;60.53;102064.31;4962654;28;20055;-76
2023/03/02 09:13:34;;;;;;;4.43;0.10;;;;;;;4.50;60.08;102074.84;4958886;28;20055;-74
2023/03/02 09:16:01;;;;;;;2.42;0.40;;;;;;;4.52;59.66;102073.16;4963307;28;20051;-73
2023/03/02 09:18:29;;;;;;;1.15;0.20;;;;;;;4.57;59.58;102070.69;4963857;28;20479;-73
2023/03/02 09:20:56;;;;;;;5.07;0.10;;;;;;;4.59;59.90;102067.31;4961176;28;20503;-73
2023/03/02 09:23:25;;;;;;;5.05;0.30;;;;;;;4.63;59.80;102065.69;4964380;28;20059;-73
2023/03/02 09:25:53;;;;;;;6.07;1.95;;;;;;;4.68;59.76;102066.69;4965964;28;20046;-74
2023/03/02 09:28:21;;;;;;;1.02;0.10;;;;;;;4.71;59.52;102057.28;4963861;28;20311;-73
2023/03/02 09:30:51;;;;;;;2.78;0.10;;;;;;;4.75;59.11;102050.47;4966210;28;20098;-73
2023/03/02 09:33:18;;;;;;;1.50;0.20;;;;;;;4.77;59.10;102048.81;4965460;28;20061;-74
2023/03/02 09:35:46;;;;;;;3.63;0.20;;;;;;;4.81;59.02;102045.47;4964281;28;20051;-74
2023/03/02 09:38:15;;;;;;;4.05;0.10;;;;;;;4.83;59.03;102041.19;4965222;28;20053;-74
2023/03/02 09:41:07;;;;;;;2.38;0.00;;;;;;;4.86;59.15;102042.97;4963271;28;20070;-74
2023/03/02 09:43:43;;;;;;;2.67;0.10;;;;;;;4.88;58.57;102042.19;4967456;28;20051;-74
2023/03/02 09:46:20;;;;;;;2.92;0.15;;;;;;;4.90;58.44;102032.75;4959375;28;20066;-73
2023/03/02 09:48:57;;;;;;;5.30;0.20;;;;;;;4.94;58.18;102033.69;4963002;28;20051;-76
2023/03/02 09:51:33;;;;;;;5.32;0.10;;;;;;;5.02;58.27;102021.81;4963145;28;20109;-75
2023/03/02 09:54:08;;;;;;;1.48;0.10;;;;;;;5.15;58.38;102021.28;4965156;28;20641;-74
2023/03/02 09:56:39;;;;;;;3.13;0.10;;;;;;;5.33;57.81;102019.97;4963515;28;20051;-74
2023/03/02 09:59:13;;;;;;;3.92;1.58;;;;;;;5.47;57.48;102009.91;4964377;28;20055;-74
2023/03/02 10:01:47;;;;;;;0.68;0.13;;;;;;;5.54;56.85;102002.28;4965867;28;20042;-74
2023/03/02 10:04:21;;;;;;;5.03;0.20;;;;;;;5.65;56.76;101989.56;4960613;28;20047;-73
2023/03/02 10:06:51;;;;;;;4.78;0.10;;;;;;;5.67;56.36;101976.66;4963490;28;20122;-73
2023/03/02 10:09:18;;;;;;;2.35;0.10;;;;;;;5.83;56.35;101999.44;4963164;28;20074;-73
2023/03/02 10:11:58;;;;;;;7.32;0.75;;;;;;;5.79;55.93;101982.06;4968461;28;20047;-73
2023/03/02 10:14:30;;;;;;;3.88;0.20;;;;;;;5.82;56.09;101987.31;4959045;28;20051;-73
2023/03/02 10:17:16;;;;;;;2.47;0.20;;;;;;;5.82;56.41;101980.41;4958702;28;20070;-73
2023/03/02 10:19:47;;;;;;;14.18;3.35;;;;;;;5.80;55.96;101974.31;4966113;28;20046;-73
2023/03/02 10:22:21;;;;;;;8.35;1.42;;;;;;;5.80;56.15;101976.03;4963444;28;20043;-73
2023/03/02 10:24:56;;;;;;;3.17;0.70;;;;;;;5.79;55.56;101969.97;4962458;28;20089;-73
2023/03/02 10:27:28;;;;;;;1.63;0.20;;;;;;;5.71;55.85;101955.97;4963367;28;20061;-73
2023/03/02 10:30:01;;;;;;;0.63;0.20;;;;;;;5.80;56.08;101960.47;4961165;28;20039;-73
2023/03/02 10:32:32;;;;;;;0.95;0.30;;;;;;;5.82;55.71;101953.63;4966605;28;20137;-74
2023/03/02 10:35:02;;;;;;;2.50;0.40;;;;;;;5.83;55.91;101950.16;4962881;28;20642;-73
2023/03/02 10:37:30;;;;;;;1.45;0.10;;;;;;;5.82;55.88;101940.66;4965679;28;20062;-73
2023/03/02 10:39:58;;;;;;;2.00;0.10;;;;;;;5.86;55.63;101939.84;4963762;28;20053;-73
2023/03/02 10:42:29;;;;;;;1.42;0.08;;;;;;;5.88;55.61;101932.97;4962516;28;20047;-73
2023/03/02 10:45:03;;;;;;;3.97;0.17;;;;;;;5.89;55.37;101934.75;4960891;28;20047;-74
2023/03/02 10:47:31;;;;;;;3.47;0.13;;;;;;;5.79;55.62;101907.75;4962271;28;20054;-74
2023/03/02 10:49:58;;;;;;;2.50;0.20;;;;;;;5.89;55.07;101931.25;4965332;28;20066;-73
2023/03/02 10:52:27;;;;;;;5.03;0.38;;;;;;;5.87;55.17;101920.88;4961771;28;20130;-73
2023/03/02 10:55:03;;;;;;;1.05;0.20;;;;;;;5.92;55.32;101920.94;4966653;28;20151;-73
2023/03/02 10:57:31;;;;;;;;;;;;;;;5.93;55.80;101921.03;4965790;28;20053;-74
2023/03/02 11:00:01;;;;;;;3.35;0.20;;;;;;;5.94;55.14;101925.34;4962430;28;19936;-74
2023/03/02 11:02:29;;;;;;;1.40;0.10;;;;;;;5.83;55.02;101903.50;4965697;28;20043;-73
2023/03/02 11:05:10;;;;;;;1.75;0.10;;;;;;;5.86;54.96;101899.25;4960302;28;20055;-73
2023/03/02 11:07:37;;;;;;;5.00;0.10;;;;;;;5.95;54.49;101901.19;4963478;28;20080;-73
2023/03/02 11:10:07;;;;;;;3.10;0.10;;;;;;;5.84;54.56;101884.53;4960929;28;20384;-74
2023/03/02 11:12:37;;;;;;;6.05;0.20;;;;;;;5.97;54.46;101906.38;4961369;28;20067;-73
2023/03/02 11:15:25;;;;;;;1.65;0.28;;;;;;;5.97;54.33;101902.06;4963314;28;20061;-74
2023/03/02 11:17:59;;;;;;;1.98;0.10;;;;;;;5.93;53.95;101889.00;4963127;28;20067;-74
2023/03/02 11:20:31;;;;;;;4.82;0.32;;;;;;;5.97;54.13;101894.28;4962920;28;20047;-73
2023/03/02 11:23:15;;;;;;;2.45;0.10;;;;;;;5.98;54.11;101879.63;4964512;28;20058;-74
2023/03/02 11:25:52;;;;;;;4.07;0.30;;;;;;;6.05;54.46;101884.94;4964299;28;20050;-74
2023/03/02 11:28:34;;;;;;;2.30;0.20;;;;;;;6.08;54.01;101874.59;4964382;28;20043;-74
2023/03/02 11:31:06;;;;;;;2.08;0.20;;;;;;;6.10;54.21;101860.81;4963732;28;20483;-74
2023/03/02 11:33:39;;;;;;;5.30;0.30;;;;;;;6.14;54.09;101860.00;4963724;28;20106;-74
2023/03/02 11:36:15;;;;;;;3.15;0.30;;;;;;;6.20;54.06;101865.28;4962700;28;20844;-73
2023/03/02 11:38:48;;;;;;;1.25;0.20;;;;;;;6.22;53.59;101853.22;4962191;28;20043;-74
2023/03/02 11:41:26;;;;;;;2.33;0.20;;;;;;;6.23;53.58;101847.19;4964398;28;20555;-75
2023/03/02 11:43:53;;;;;;;4.70;0.30;;;;;;;6.31;53.25;101855.97;4963931;28;20074;-74